Emmaus, Pennsylvania
Current Conditions -  °F | °C
As of 1:15 PM on Sunday 25 Jan 2015 (Local Time) from KXLL Reporting Station
Overcast Overcast  
Wind Chill: 32°   Ceiling: 3300
Heat Index: 37°   Visibility: 10mi
Dew Point: 30°   Wind: 7mph
Humidity: 75%   Direction: 260°W
Pressure: 29.81"   Gusts: NA
Location:  40.54°N, 75.49°W
Report Text: KXLL 251815Z AUTO 26006KT 10SM BKN033 OVC041 03/M01 A2981 RMK AO2
Loading
Personal Weather Stations






























Interactive Weather Map New forecast layout! Learn more

10-Day Weather Forecast

Advertisements
Track Severe Weather on mobile